Decoded Metar for KASD (SLIDELL 22 in LA, USA) (IATA:ASD) | Meteo·Mobile Aviation Weather
aviador You're here:

KASD Decoded Metar

SLIDELL 22 in LA, USA
Report Time2018-12-12 00:53:00
UTC Time2018-12-12 01:13:07
Flight Rules vfr VFR
WindCalm
Visibility9999 m
Phenomena:N/A
Clouds:N/A
Expected CloudBase > 800 ft AGL from Temp-Dew spread
CeilingNone
Temp05°C (ISA -10)
Dew Point03°C (87% RH)
AAT3.5°C
QNH1027 hPa
Density Alt-1,542 ft
Elevation30 ft
Report Wrong Elevation
Raw Report
KASD 120053Z AUTO 00000KT 10SM CLR 05/03 A3034 RMK AO2 SLP274
T00500028=

Extra information for KASD:More info

Metar Taf Metar & Taf Last 4 Metars F.Rules Stats Wind Profile Meteogram Temp Stats Airport Information Weather charts Add Link Nearby VenuesMetar ALERT Operation Metar Decoded Social comments

AIRNAV info for KASD